Time;durP1;ratioP1;P1;durP2;ratioP2;P2;SDS_P1;SDS_P2;PMS_P1;PMS_P2;Temp;Humidity;BMP_temperature;BMP_pressure;BME280_temperature;BME280_humidity;BME280_pressure;Samples;Min_cycle;Max_cycle;Signal;HPM_P1;HPM_P2
2024/04/06 00:00:02;;;;;;;7.22;5.22;;;;;;;;;;5031475;28;20029;-49
2024/04/06 00:02:38;;;;;;;7.55;5.05;;;;;;;;;;5031844;28;20124;-50
2024/04/06 00:05:06;;;;;;;13.90;5.47;;;;;;;;;;5031627;28;20061;-49
2024/04/06 00:07:32;;;;;;;7.45;5.13;;;;;;;;;;5031770;28;20017;-49
2024/04/06 00:09:59;;;;;;;7.47;5.68;;;;;;;;;;5014055;28;20104;-49
2024/04/06 00:12:25;;;;;;;7.05;4.97;;;;;;;;;;5031929;28;20025;-49
2024/04/06 00:14:51;;;;;;;12.07;5.57;;;;;;;;;;5031568;28;20032;-48
2024/04/06 00:17:17;;;;;;;6.35;4.90;;;;;;;;;;5031587;28;20483;-48
2024/04/06 00:19:45;;;;;;;8.30;6.35;;;;;;;;;;5046492;28;20151;-49
2024/04/06 00:22:11;;;;;;;16.42;8.45;;;;;;;;;;5031538;28;20037;-48
2024/04/06 00:24:37;;;;;;;16.60;8.10;;;;;;;;;;5031622;28;20040;-49
2024/04/06 00:27:03;;;;;;;11.03;7.67;;;;;;;;;;5031571;28;20025;-50
2024/04/06 00:29:30;;;;;;;11.47;8.17;;;;;;;;;;5031151;28;20036;-48
2024/04/06 00:31:56;;;;;;;11.90;8.32;;;;;;;;;;5031147;28;20848;-49
2024/04/06 00:34:22;;;;;;;15.70;8.82;;;;;;;;;;5031113;28;20040;-50
2024/04/06 00:36:48;;;;;;;13.10;7.33;;;;;;;;;;5031191;28;20359;-49
2024/04/06 00:39:14;;;;;;;10.07;7.07;;;;;;;;;;5031032;28;20542;-49
2024/04/06 00:41:40;;;;;;;12.43;6.83;;;;;;;;;;5031359;28;20041;-48
2024/04/06 00:44:07;;;;;;;8.95;7.22;;;;;;;;;;5031079;28;20047;-49
2024/04/06 00:46:33;;;;;;;12.18;6.18;;;;;;;;;;5031331;28;20072;-48
2024/04/06 00:49:00;;;;;;;7.97;5.55;;;;;;;;;;5030856;28;20365;-49
2024/04/06 00:51:26;;;;;;;8.52;5.72;;;;;;;;;;5031091;28;20024;-50
2024/04/06 00:53:52;;;;;;;14.60;6.27;;;;;;;;;;5013706;28;20026;-48
2024/04/06 00:56:18;;;;;;;8.77;5.95;;;;;;;;;;5031550;28;20116;-48
2024/04/06 00:58:45;;;;;;;12.05;6.68;;;;;;;;;;5031246;28;20084;-51
2024/04/06 01:01:11;;;;;;;10.95;6.90;;;;;;;;;;5034688;28;20029;-47
2024/04/06 01:03:37;;;;;;;8.30;6.83;;;;;;;;;;5035221;28;20079;-52
2024/04/06 01:06:04;;;;;;;11.18;6.07;;;;;;;;;;5034155;28;20026;-48
2024/04/06 01:08:32;;;;;;;12.93;8.35;;;;;;;;;;5035236;28;20120;-49
2024/04/06 01:11:00;;;;;;;11.25;6.50;;;;;;;;;;5050554;28;20484;-48
2024/04/06 01:13:26;;;;;;;9.27;6.25;;;;;;;;;;5017567;28;20033;-50
2024/04/06 01:15:53;;;;;;;8.93;6.35;;;;;;;;;;5035225;28;20037;-48
2024/04/06 01:18:19;;;;;;;10.63;6.97;;;;;;;;;;5035129;28;20061;-48
2024/04/06 01:20:47;;;;;;;7.93;6.38;;;;;;;;;;5034959;28;20454;-50
2024/04/06 01:23:14;;;;;;;8.43;6.13;;;;;;;;;;5035024;28;20033;-48
2024/04/06 01:25:40;;;;;;;11.77;7.15;;;;;;;;;;5033838;28;20048;-51
2024/04/06 01:28:06;;;;;;;8.23;7.32;;;;;;;;;;5033863;28;20083;-48
2024/04/06 01:30:32;;;;;;;21.55;7.65;;;;;;;;;;5034671;28;20034;-49
2024/04/06 01:32:58;;;;;;;10.25;6.95;;;;;;;;;;5034978;28;20480;-49
2024/04/06 01:35:25;;;;;;;11.43;6.43;;;;;;;;;;5033604;28;20480;-49
2024/04/06 01:37:51;;;;;;;8.80;6.38;;;;;;;;;;5033605;28;20072;-49
2024/04/06 01:40:17;;;;;;;7.67;6.00;;;;;;;;;;5034647;28;20112;-48
2024/04/06 01:42:43;;;;;;;17.00;7.18;;;;;;;;;;5035222;28;20049;-51
2024/04/06 01:45:09;;;;;;;9.55;6.30;;;;;;;;;;5034591;28;20136;-48
2024/04/06 01:47:36;;;;;;;9.20;6.40;;;;;;;;;;5034661;28;20520;-48
2024/04/06 01:50:04;;;;;;;16.10;6.57;;;;;;;;;;5034433;28;20503;-49
2024/04/06 01:52:30;;;;;;;11.18;6.25;;;;;;;;;;5034522;28;20476;-49
2024/04/06 01:55:00;;;;;;;8.75;5.88;;;;;;;;;;5034532;28;20036;-48
2024/04/06 01:57:26;;;;;;;6.47;5.70;;;;;;;;;;5034442;28;20037;-48
2024/04/06 01:59:53;;;;;;;7.17;5.90;;;;;;;;;;5034130;28;20029;-51
2024/04/06 02:02:19;;;;;;;8.75;5.38;;;;;;;;;;5034161;28;20380;-48
2024/04/06 02:04:49;;;;;;;12.40;6.30;;;;;;;;;;5016821;28;20030;-48
2024/04/06 02:07:18;;;;;;;9.18;5.50;;;;;;;;;;5034068;28;20476;-49
2024/04/06 02:09:45;;;;;;;8.07;6.18;;;;;;;;;;5033508;28;20029;-49
2024/04/06 02:12:11;;;;;;;11.75;6.00;;;;;;;;;;5034181;28;20056;-50
2024/04/06 02:14:37;;;;;;;11.40;6.82;;;;;;;;;;5034301;28;20033;-48
2024/04/06 02:17:04;;;;;;;10.53;7.07;;;;;;;;;;5034198;28;20030;-50
2024/04/06 02:19:30;;;;;;;7.27;5.93;;;;;;;;;;5034153;28;20037;-50
2024/04/06 02:21:58;;;;;;;10.93;5.95;;;;;;;;;;5033790;28;20411;-49
2024/04/06 02:24:24;;;;;;;9.80;6.03;;;;;;;;;;5033964;28;20124;-50
2024/04/06 02:26:50;;;;;;;6.50;5.70;;;;;;;;;;5033876;28;20025;-48
2024/04/06 02:29:18;;;;;;;10.47;6.10;;;;;;;;;;5033671;28;20037;-49
2024/04/06 02:31:45;;;;;;;11.15;6.63;;;;;;;;;;5033666;28;20052;-48
2024/04/06 02:34:11;;;;;;;7.78;5.93;;;;;;;;;;5032616;28;20033;-49
2024/04/06 02:36:38;;;;;;;14.32;5.70;;;;;;;;;;5033032;28;20121;-49
2024/04/06 02:39:04;;;;;;;;;;;;;;;;;;5034086;28;20026;-47
2024/04/06 02:41:30;;;;;;;9.95;5.60;;;;;;;;;;5033361;28;19962;-48
2024/04/06 02:43:56;;;;;;;9.18;5.85;;;;;;;;;;5032368;28;20103;-51
2024/04/06 02:46:23;;;;;;;8.98;5.25;;;;;;;;;;5033668;28;20021;-49
2024/04/06 02:48:49;;;;;;;9.52;6.20;;;;;;;;;;5032362;28;20037;-51
2024/04/06 02:51:16;;;;;;;10.25;6.30;;;;;;;;;;5035195;28;20033;-50
2024/04/06 02:53:42;;;;;;;10.77;5.95;;;;;;;;;;5036708;28;20021;-49
2024/04/06 02:56:08;;;;;;;10.70;6.13;;;;;;;;;;5033092;28;20029;-50
2024/04/06 02:58:35;;;;;;;21.77;6.00;;;;;;;;;;5009014;28;20396;-49
2024/04/06 03:01:01;;;;;;;11.45;5.30;;;;;;;;;;5022504;28;20025;-50
2024/04/06 03:03:27;;;;;;;6.55;5.50;;;;;;;;;;5032923;28;20112;-49
2024/04/06 03:05:53;;;;;;;9.68;5.63;;;;;;;;;;5033258;28;20026;-49
2024/04/06 03:08:19;;;;;;;15.40;6.90;;;;;;;;;;5048556;28;20080;-50
2024/04/06 03:10:45;;;;;;;11.55;6.00;;;;;;;;;;5031246;28;20029;-50
2024/04/06 03:13:12;;;;;;;8.65;5.50;;;;;;;;;;5031548;28;20068;-48
2024/04/06 03:15:38;;;;;;;6.75;4.97;;;;;;;;;;5026404;28;20398;-49
2024/04/06 03:18:04;;;;;;;8.13;6.27;;;;;;;;;;5033126;28;20033;-48
2024/04/06 03:20:30;;;;;;;8.37;5.10;;;;;;;;;;5031404;28;20622;-48
2024/04/06 03:23:01;;;;;;;11.95;5.07;;;;;;;;;;5032412;28;20025;-48
2024/04/06 03:25:28;;;;;;;11.65;5.38;;;;;;;;;;5031546;28;20033;-48
2024/04/06 03:27:54;;;;;;;6.80;5.13;;;;;;;;;;5032672;28;20514;-48
2024/04/06 03:30:20;;;;;;;9.60;7.10;;;;;;;;;;5032354;28;20482;-48
2024/04/06 03:32:47;;;;;;;16.27;6.63;;;;;;;;;;5032830;28;20399;-48
2024/04/06 03:35:13;;;;;;;10.60;5.80;;;;;;;;;;5032196;28;20075;-48
2024/04/06 03:37:39;;;;;;;11.43;5.47;;;;;;;;;;5032361;28;20204;-48
2024/04/06 03:40:06;;;;;;;7.38;5.28;;;;;;;;;;5030934;28;20033;-48
2024/04/06 03:42:33;;;;;;;6.93;5.38;;;;;;;;;;5047889;28;20034;-48
2024/04/06 03:44:59;;;;;;;6.30;5.38;;;;;;;;;;5014735;28;20122;-47
2024/04/06 03:47:27;;;;;;;7.32;5.18;;;;;;;;;;5032082;28;20029;-48
2024/04/06 03:49:54;;;;;;;11.27;6.00;;;;;;;;;;5031994;28;20032;-44
2024/04/06 03:52:20;;;;;;;9.25;6.05;;;;;;;;;;5047569;28;20072;-48
2024/04/06 03:54:46;;;;;;;9.07;6.15;;;;;;;;;;5032347;28;20030;-45
2024/04/06 03:57:12;;;;;;;8.07;5.82;;;;;;;;;;5031661;28;20083;-50
2024/04/06 03:59:39;;;;;;;7.78;5.07;;;;;;;;;;5015076;28;20060;-49
2024/04/06 04:02:05;;;;;;;9.02;5.68;;;;;;;;;;5032108;28;20055;-48
2024/04/06 04:04:31;;;;;;;6.28;4.75;;;;;;;;;;5014414;28;20200;-48
2024/04/06 04:06:57;;;;;;;9.32;5.03;;;;;;;;;;5032079;28;20029;-49
2024/04/06 04:09:23;;;;;;;9.00;5.30;;;;;;;;;;5032023;28;20087;-48
2024/04/06 04:11:50;;;;;;;10.57;5.40;;;;;;;;;;5047314;28;20033;-48
2024/04/06 04:14:16;;;;;;;8.20;5.72;;;;;;;;;;5032078;28;20025;-48
2024/04/06 04:16:43;;;;;;;12.73;6.53;;;;;;;;;;5031997;28;20558;-49
2024/04/06 04:19:09;;;;;;;8.75;6.22;;;;;;;;;;5030648;28;20116;-48
2024/04/06 04:21:35;;;;;;;9.77;5.43;;;;;;;;;;5031651;28;20033;-48
2024/04/06 04:24:01;;;;;;;7.32;5.32;;;;;;;;;;5031788;28;20025;-48
2024/04/06 04:26:27;;;;;;;8.90;5.30;;;;;;;;;;5014196;28;20113;-48
2024/04/06 04:28:55;;;;;;;10.95;6.63;;;;;;;;;;5031929;28;20029;-48
2024/04/06 04:31:22;;;;;;;8.55;5.85;;;;;;;;;;5031645;28;20360;-48
2024/04/06 04:33:48;;;;;;;8.82;5.90;;;;;;;;;;5030763;28;20029;-47
2024/04/06 04:36:14;;;;;;;8.18;5.75;;;;;;;;;;5031653;28;20033;-50
2024/04/06 04:38:40;;;;;;;8.98;5.55;;;;;;;;;;5031656;28;20025;-47
2024/04/06 04:41:07;;;;;;;7.15;5.28;;;;;;;;;;5031505;28;20569;-48
2024/04/06 04:43:34;;;;;;;9.43;5.30;;;;;;;;;;5031565;28;20032;-48
2024/04/06 04:46:00;;;;;;;11.07;5.23;;;;;;;;;;5046973;28;20026;-48
2024/04/06 04:48:26;;;;;;;9.00;5.53;;;;;;;;;;5031467;28;20061;-48
2024/04/06 04:50:52;;;;;;;9.25;6.25;;;;;;;;;;5031284;28;20263;-48
2024/04/06 04:53:19;;;;;;;8.83;5.43;;;;;;;;;;5031642;28;20026;-47
2024/04/06 04:55:45;;;;;;;11.00;6.30;;;;;;;;;;5031589;28;20095;-48
2024/04/06 04:58:11;;;;;;;10.87;7.33;;;;;;;;;;5031518;28;20120;-52
2024/04/06 05:00:37;;;;;;;8.73;6.18;;;;;;;;;;5046577;28;20505;-49
2024/04/06 05:03:04;;;;;;;8.88;5.70;;;;;;;;;;5013684;28;20021;-48
2024/04/06 05:05:30;;;;;;;10.03;6.00;;;;;;;;;;5031308;28;20115;-48
2024/04/06 05:07:56;;;;;;;9.48;5.85;;;;;;;;;;5031423;28;20260;-47
2024/04/06 05:10:22;;;;;;;12.98;6.82;;;;;;;;;;5031211;28;20476;-48
2024/04/06 05:12:48;;;;;;;11.43;6.70;;;;;;;;;;5031468;28;20484;-48
2024/04/06 05:15:15;;;;;;;10.50;6.43;;;;;;;;;;5031440;28;20083;-47
2024/04/06 05:17:41;;;;;;;17.30;7.40;;;;;;;;;;5031250;28;20033;-48
2024/04/06 05:20:08;;;;;;;10.25;6.25;;;;;;;;;;5031062;28;20103;-50
2024/04/06 05:22:34;;;;;;;8.07;6.63;;;;;;;;;;5031264;28;20176;-48
2024/04/06 05:25:01;;;;;;;10.95;7.88;;;;;;;;;;5031523;28;20029;-49
2024/04/06 05:27:28;;;;;;;9.13;6.30;;;;;;;;;;5031253;28;20120;-49
2024/04/06 05:29:54;;;;;;;14.23;6.57;;;;;;;;;;5030889;28;20517;-47
2024/04/06 05:32:20;;;;;;;14.95;7.20;;;;;;;;;;5031014;28;20056;-47
2024/04/06 05:34:46;;;;;;;8.40;6.50;;;;;;;;;;5031167;28;20036;-51
2024/04/06 05:37:12;;;;;;;9.02;5.65;;;;;;;;;;5031156;28;20071;-49
2024/04/06 05:39:38;;;;;;;16.63;6.18;;;;;;;;;;5030897;28;20026;-47
2024/04/06 05:42:05;;;;;;;12.70;6.15;;;;;;;;;;5031177;28;20048;-47
2024/04/06 05:44:31;;;;;;;12.00;5.23;;;;;;;;;;5031109;28;20108;-50
2024/04/06 05:46:57;;;;;;;11.20;5.67;;;;;;;;;;5034336;28;20503;-48
2024/04/06 05:49:23;;;;;;;12.00;5.40;;;;;;;;;;5034704;28;20396;-48
2024/04/06 05:51:50;;;;;;;10.32;6.25;;;;;;;;;;5034496;28;20041;-49
2024/04/06 05:54:16;;;;;;;11.63;5.57;;;;;;;;;;5034632;28;20506;-48
2024/04/06 05:56:42;;;;;;;8.30;5.95;;;;;;;;;;5034622;28;20064;-48
2024/04/06 05:59:08;;;;;;;8.50;5.27;;;;;;;;;;5034379;28;20034;-48
2024/04/06 06:01:35;;;;;;;10.68;6.00;;;;;;;;;;5034142;28;20026;-51
2024/04/06 06:04:01;;;;;;;10.68;5.90;;;;;;;;;;5034398;28;20029;-48
2024/04/06 06:06:27;;;;;;;6.82;5.28;;;;;;;;;;5034409;28;20041;-48
2024/04/06 06:08:53;;;;;;;12.15;5.60;;;;;;;;;;5034346;28;20108;-49
2024/04/06 06:11:19;;;;;;;9.07;5.25;;;;;;;;;;5016373;28;20026;-48
2024/04/06 06:13:45;;;;;;;8.55;5.50;;;;;;;;;;5034216;28;20029;-48
2024/04/06 06:16:11;;;;;;;9.18;5.20;;;;;;;;;;5034093;28;20021;-47
2024/04/06 06:18:38;;;;;;;9.10;5.63;;;;;;;;;;5034154;28;20484;-48
2024/04/06 06:21:05;;;;;;;14.68;5.55;;;;;;;;;;5034011;28;20025;-48
2024/04/06 06:23:31;;;;;;;9.15;5.30;;;;;;;;;;5033971;28;20029;-48
2024/04/06 06:25:58;;;;;;;12.07;5.27;;;;;;;;;;5034220;28;20083;-51
2024/04/06 06:28:24;;;;;;;10.95;5.18;;;;;;;;;;5034399;28;20335;-51
2024/04/06 06:30:50;;;;;;;11.80;5.40;;;;;;;;;;5015795;28;20083;-48
2024/04/06 06:33:21;;;;;;;13.57;5.65;;;;;;;;;;5033931;28;20030;-48
2024/04/06 06:35:56;;;;;;;9.68;6.38;;;;;;;;;;5033880;28;20027;-48
2024/04/06 06:38:22;;;;;;;16.83;6.88;;;;;;;;;;5033901;28;20022;-48
2024/04/06 06:40:49;;;;;;;10.48;5.72;;;;;;;;;;5033493;28;20026;-49
2024/04/06 06:43:15;;;;;;;8.02;5.22;;;;;;;;;;5033579;28;20029;-48
2024/04/06 06:45:41;;;;;;;9.00;5.50;;;;;;;;;;5033599;28;20506;-48
2024/04/06 06:48:08;;;;;;;8.33;5.57;;;;;;;;;;5049066;28;20472;-48
2024/04/06 06:50:34;;;;;;;8.93;5.47;;;;;;;;;;5015537;28;20252;-48
2024/04/06 06:53:01;;;;;;;6.72;5.40;;;;;;;;;;5033532;28;20026;-49
2024/04/06 06:55:27;;;;;;;12.13;5.63;;;;;;;;;;5033440;28;20403;-48
2024/04/06 06:57:54;;;;;;;14.98;5.30;;;;;;;;;;5031020;28;20033;-48
2024/04/06 07:00:20;;;;;;;7.22;5.30;;;;;;;;;;5033112;28;20063;-50
2024/04/06 07:02:46;;;;;;;11.50;5.70;;;;;;;;;;5048722;28;20391;-48
2024/04/06 07:05:13;;;;;;;6.77;5.13;;;;;;;;;;5048664;28;20029;-47
2024/04/06 07:07:39;;;;;;;7.75;4.72;;;;;;;;;;5033340;28;20034;-48
2024/04/06 07:10:06;;;;;;;9.95;5.05;;;;;;;;;;5015168;28;20022;-48
2024/04/06 07:12:34;;;;;;;7.38;4.97;;;;;;;;;;5033008;28;20028;-48
2024/04/06 07:15:00;;;;;;;7.55;5.35;;;;;;;;;;5033071;28;20034;-49
2024/04/06 07:17:26;;;;;;;11.07;5.60;;;;;;;;;;5033096;28;20038;-49
2024/04/06 07:19:52;;;;;;;8.27;5.38;;;;;;;;;;5048188;28;20112;-48
2024/04/06 07:22:18;;;;;;;12.07;5.38;;;;;;;;;;5032982;28;20036;-52
2024/04/06 07:24:45;;;;;;;9.83;6.07;;;;;;;;;;5032769;28;20045;-48
2024/04/06 07:27:11;;;;;;;8.23;5.30;;;;;;;;;;5015151;28;20029;-47
2024/04/06 07:29:37;;;;;;;11.13;5.95;;;;;;;;;;5032656;28;20079;-50
2024/04/06 07:32:03;;;;;;;8.63;4.65;;;;;;;;;;5032834;28;20030;-48
2024/04/06 07:34:29;;;;;;;9.20;5.10;;;;;;;;;;5032777;28;20048;-49
2024/04/06 07:36:56;;;;;;;12.95;5.47;;;;;;;;;;5032706;28;20271;-50
2024/04/06 07:39:22;;;;;;;10.10;5.07;;;;;;;;;;5032511;28;20029;-48
2024/04/06 07:41:48;;;;;;;8.57;4.77;;;;;;;;;;5032452;28;20041;-47
2024/04/06 07:44:14;;;;;;;7.90;5.28;;;;;;;;;;5032476;28;20540;-48
2024/04/06 07:46:40;;;;;;;9.57;4.63;;;;;;;;;;5047791;28;20086;-48
2024/04/06 07:49:06;;;;;;;12.27;5.28;;;;;;;;;;5032412;28;20031;-50
2024/04/06 07:51:33;;;;;;;7.70;4.70;;;;;;;;;;5032332;28;20037;-48
2024/04/06 07:53:59;;;;;;;10.38;4.90;;;;;;;;;;5032373;28;20475;-48
2024/04/06 07:56:25;;;;;;;11.17;4.90;;;;;;;;;;5032399;28;20026;-48
2024/04/06 07:58:51;;;;;;;8.38;4.88;;;;;;;;;;5032684;28;20259;-48
2024/04/06 08:01:18;;;;;;;10.30;4.30;;;;;;;;;;5032200;28;20061;-48
2024/04/06 08:03:44;;;;;;;11.35;5.13;;;;;;;;;;5032336;28;20506;-48
2024/04/06 08:06:11;;;;;;;12.15;4.97;;;;;;;;;;5032322;28;20025;-48
2024/04/06 08:08:37;;;;;;;12.15;5.60;;;;;;;;;;5031886;28;20383;-48
2024/04/06 08:11:04;;;;;;;7.93;5.57;;;;;;;;;;5031913;28;20029;-48
2024/04/06 08:13:31;;;;;;;9.45;5.68;;;;;;;;;;5032009;28;20029;-48
2024/04/06 08:15:57;;;;;;;7.00;4.43;;;;;;;;;;5014359;28;20116;-48
2024/04/06 08:18:23;;;;;;;11.02;4.25;;;;;;;;;;5047378;28;20025;-49
2024/04/06 08:20:49;;;;;;;9.10;3.63;;;;;;;;;;5031638;28;20048;-48
2024/04/06 08:23:17;;;;;;;8.15;3.67;;;;;;;;;;5031762;28;20014;-48
2024/04/06 08:25:45;;;;;;;6.47;3.63;;;;;;;;;;5032082;28;20033;-49
2024/04/06 08:28:12;;;;;;;6.40;3.28;;;;;;;;;;5031766;28;20025;-48
2024/04/06 08:30:39;;;;;;;8.90;4.07;;;;;;;;;;5013717;28;20518;-49
2024/04/06 08:33:08;;;;;;;7.45;4.28;;;;;;;;;;5032207;28;20026;-48
2024/04/06 08:35:38;;;;;;;8.88;3.47;;;;;;;;;;5047029;28;20036;-48
2024/04/06 08:38:05;;;;;;;16.98;5.20;;;;;;;;;;5031639;28;20029;-48
2024/04/06 08:40:31;;;;;;;5.20;2.63;;;;;;;;;;5031429;28;20128;-48
2024/04/06 08:43:02;;;;;;;6.63;2.97;;;;;;;;;;5047038;28;20061;-48
2024/04/06 08:45:28;;;;;;;11.73;3.78;;;;;;;;;;5032055;28;20044;-48
2024/04/06 08:47:55;;;;;;;6.50;2.53;;;;;;;;;;5030198;28;20022;-48
2024/04/06 08:50:21;;;;;;;6.25;3.08;;;;;;;;;;5031251;28;20033;-48
2024/04/06 08:52:47;;;;;;;8.60;2.83;;;;;;;;;;5031523;28;20025;-47
2024/04/06 08:55:14;;;;;;;4.57;2.60;;;;;;;;;;5046943;28;20405;-50
2024/04/06 08:57:41;;;;;;;6.68;2.35;;;;;;;;;;5031477;28;20044;-48
2024/04/06 09:00:10;;;;;;;9.75;3.25;;;;;;;;;;5031295;28;20033;-49
2024/04/06 09:02:36;;;;;;;7.25;2.28;;;;;;;;;;5013634;28;20087;-49
2024/04/06 09:05:05;;;;;;;7.28;2.65;;;;;;;;;;5031338;28;20113;-48
2024/04/06 09:07:32;;;;;;;8.35;2.67;;;;;;;;;;5031605;28;20018;-48
2024/04/06 09:09:58;;;;;;;5.00;2.33;;;;;;;;;;5031156;28;20075;-48
2024/04/06 09:12:25;;;;;;;4.93;2.35;;;;;;;;;;5031383;28;20032;-49
2024/04/06 09:14:51;;;;;;;3.72;2.38;;;;;;;;;;5031406;28;20025;-48
2024/04/06 09:17:18;;;;;;;7.00;2.40;;;;;;;;;;5031277;28;20116;-48
2024/04/06 09:19:44;;;;;;;;;;;;;;;;;;5030151;28;20083;-48
2024/04/06 09:22:11;;;;;;;6.50;2.25;;;;;;;;;;5035259;28;19917;-49
2024/04/06 09:24:37;;;;;;;6.50;2.60;;;;;;;;;;5035186;28;20034;-49
2024/04/06 09:27:13;;;;;;;3.50;2.00;;;;;;;;;;5017610;28;20060;-49
2024/04/06 09:29:46;;;;;;;6.80;2.53;;;;;;;;;;5034983;28;20041;-50
2024/04/06 09:32:14;;;;;;;10.45;2.58;;;;;;;;;;5035395;28;20025;-49
2024/04/06 09:34:48;;;;;;;8.43;3.60;;;;;;;;;;5035052;28;20480;-51
2024/04/06 09:37:15;;;;;;;8.45;2.28;;;;;;;;;;5035143;28;20034;-48
2024/04/06 09:39:42;;;;;;;4.68;2.50;;;;;;;;;;5050134;28;20070;-48
2024/04/06 09:42:09;;;;;;;5.43;1.90;;;;;;;;;;5050278;28;20487;-48
2024/04/06 09:44:35;;;;;;;;;;;;;;;;;;5035341;28;20315;-49
2024/04/06 09:47:02;;;;;;;6.35;2.65;;;;;;;;;;5050210;28;19909;-48
2024/04/06 09:49:29;;;;;;;8.63;2.45;;;;;;;;;;5034818;28;20442;-49
2024/04/06 09:51:55;;;;;;;2.97;1.70;;;;;;;;;;5050050;28;20029;-49
2024/04/06 09:54:22;;;;;;;4.87;1.83;;;;;;;;;;5034767;28;20435;-47
2024/04/06 09:56:48;;;;;;;4.50;2.60;;;;;;;;;;5034642;28;20104;-49
2024/04/06 09:59:21;;;;;;;6.83;1.83;;;;;;;;;;5016733;28;20088;-49
2024/04/06 10:01:48;;;;;;;3.63;1.58;;;;;;;;;;5034670;28;20060;-51
2024/04/06 10:04:34;;;;;;;3.57;2.00;;;;;;;;;;5016978;28;20049;-50
2024/04/06 10:07:04;;;;;;;8.23;2.35;;;;;;;;;;5034835;28;20029;-49
2024/04/06 10:09:31;;;;;;;5.03;1.85;;;;;;;;;;5049553;28;20029;-50
2024/04/06 10:12:02;;;;;;;5.72;2.42;;;;;;;;;;5049544;28;20025;-49
2024/04/06 10:14:29;;;;;;;5.50;2.13;;;;;;;;;;5034298;28;20501;-49
2024/04/06 10:17:14;;;;;;;5.32;1.98;;;;;;;;;;5034241;28;20514;-48
2024/04/06 10:19:41;;;;;;;6.88;1.77;;;;;;;;;;5016142;28;20464;-49
2024/04/06 10:22:07;;;;;;;3.92;1.60;;;;;;;;;;5049473;28;20033;-49
2024/04/06 10:24:37;;;;;;;6.07;1.50;;;;;;;;;;5034013;28;20396;-49
2024/04/06 10:27:03;;;;;;;4.85;1.88;;;;;;;;;;5033986;28;20037;-49
2024/04/06 10:29:31;;;;;;;2.33;1.60;;;;;;;;;;5076206;22;20461;-49
2024/04/06 10:31:57;;;;;;;3.15;1.70;;;;;;;;;;5053422;28;20104;-49
2024/04/06 10:34:24;;;;;;;3.13;1.50;;;;;;;;;;5053721;28;20460;-50
2024/04/06 10:36:50;;;;;;;5.63;2.10;;;;;;;;;;5019422;28;20028;-49
2024/04/06 10:39:17;;;;;;;4.05;2.10;;;;;;;;;;5053648;28;20506;-48
2024/04/06 10:41:44;;;;;;;3.85;1.60;;;;;;;;;;5053653;28;20120;-48
2024/04/06 10:44:10;;;;;;;7.72;2.10;;;;;;;;;;5053578;28;20037;-52
2024/04/06 10:46:37;;;;;;;3.15;1.63;;;;;;;;;;5035746;28;20109;-49
2024/04/06 10:49:09;;;;;;;5.72;1.67;;;;;;;;;;5053405;28;20029;-49
2024/04/06 10:51:36;;;;;;;4.35;1.83;;;;;;;;;;5035326;28;20139;-49
2024/04/06 10:54:02;;;;;;;;;;;;;;;;;;5034541;28;20021;-50
2024/04/06 10:56:29;;;;;;;5.60;2.05;;;;;;;;;;5052172;28;19920;-50
2024/04/06 10:58:55;;;;;;;4.38;2.15;;;;;;;;;;5051806;28;20043;-48
2024/04/06 11:01:26;;;;;;;3.97;1.63;;;;;;;;;;5067830;28;20036;-51
2024/04/06 11:03:52;;;;;;;5.63;2.10;;;;;;;;;;5051705;28;20043;-54
2024/04/06 11:06:19;;;;;;;6.00;2.10;;;;;;;;;;5044385;28;20036;-51
2024/04/06 11:08:45;;;;;;;4.97;1.77;;;;;;;;;;5037469;28;20147;-52
2024/04/06 11:11:13;;;;;;;6.78;2.17;;;;;;;;;;5047209;28;20045;-54
2024/04/06 11:13:40;;;;;;;11.80;2.45;;;;;;;;;;5031731;28;20095;-51
2024/04/06 11:16:06;;;;;;;5.13;2.00;;;;;;;;;;5037378;28;20024;-51
2024/04/06 11:18:39;;;;;;;5.18;1.75;;;;;;;;;;5052031;28;20449;-55
2024/04/06 11:21:13;;;;;;;3.85;2.28;;;;;;;;;;5035332;28;20407;-51
2024/04/06 11:23:40;;;;;;;5.95;2.47;;;;;;;;;;5040754;28;20029;-51
2024/04/06 11:26:07;;;;;;;3.25;1.90;;;;;;;;;;5044627;28;20028;-55
2024/04/06 11:28:33;;;;;;;5.63;1.85;;;;;;;;;;5031522;28;20080;-51
2024/04/06 11:31:00;;;;;;;5.95;2.40;;;;;;;;;;5031617;28;20048;-53
2024/04/06 11:33:27;;;;;;;8.00;2.92;;;;;;;;;;5013758;28;20025;-51
2024/04/06 11:35:53;;;;;;;4.60;2.10;;;;;;;;;;5032966;28;20395;-54
2024/04/06 11:38:19;;;;;;;3.67;2.00;;;;;;;;;;5051250;28;20033;-53
2024/04/06 11:40:52;;;;;;;7.03;1.70;;;;;;;;;;5051240;28;20064;-52
2024/04/06 11:43:19;;;;;;;6.45;1.70;;;;;;;;;;5044814;28;20361;-51
2024/04/06 11:45:45;;;;;;;6.60;2.00;;;;;;;;;;5037061;28;20037;-55
2024/04/06 11:48:14;;;;;;;2.92;1.80;;;;;;;;;;5049261;28;20024;-53
2024/04/06 11:50:41;;;;;;;3.35;1.35;;;;;;;;;;5050817;28;20475;-51
2024/04/06 11:53:10;;;;;;;;;;;;;;;;;;5051530;28;20511;-57
2024/04/06 11:55:37;;;;;;;4.72;1.90;;;;;;;;;;5049178;28;19911;-52
2024/04/06 11:58:03;;;;;;;2.83;1.80;;;;;;;;;;5031383;28;20025;-55
2024/04/06 12:00:33;;;;;;;8.30;2.30;;;;;;;;;;5030758;28;20376;-54
2024/04/06 12:02:59;;;;;;;3.10;2.45;;;;;;;;;;5031079;28;20030;-54
2024/04/06 12:05:26;;;;;;;4.18;2.30;;;;;;;;;;5038363;28;20068;-54
2024/04/06 12:07:52;;;;;;;4.50;2.20;;;;;;;;;;5051068;28;20036;-53
2024/04/06 12:10:19;;;;;;;4.93;2.03;;;;;;;;;;5049770;28;20029;-54
2024/04/06 12:12:45;;;;;;;5.90;2.17;;;;;;;;;;5050535;28;20063;-54
2024/04/06 12:15:11;;;;;;;5.10;2.17;;;;;;;;;;5041063;28;20438;-54
2024/04/06 12:17:38;;;;;;;4.30;2.67;;;;;;;;;;5040946;28;20393;-52
2024/04/06 12:20:04;;;;;;;4.88;1.85;;;;;;;;;;5030505;28;20302;-51
2024/04/06 12:22:30;;;;;;;2.85;2.00;;;;;;;;;;5034493;28;20056;-55
2024/04/06 12:24:57;;;;;;;5.55;2.30;;;;;;;;;;5050261;28;20036;-52
2024/04/06 12:27:23;;;;;;;6.45;2.00;;;;;;;;;;5032709;28;20033;-51
2024/04/06 12:29:49;;;;;;;5.95;2.15;;;;;;;;;;5015811;28;20029;-51
2024/04/06 12:32:15;;;;;;;3.60;1.88;;;;;;;;;;5049004;28;20107;-55
2024/04/06 12:34:42;;;;;;;3.83;2.27;;;;;;;;;;5030556;28;20036;-54
2024/04/06 12:37:10;;;;;;;4.30;2.03;;;;;;;;;;5046634;28;20268;-52
2024/04/06 12:39:39;;;;;;;4.47;1.70;;;;;;;;;;5045164;28;20021;-53
2024/04/06 12:42:06;;;;;;;4.55;1.70;;;;;;;;;;5030535;28;20056;-55
2024/04/06 12:44:32;;;;;;;;;;;;;;;;;;5033809;28;20108;-55
2024/04/06 12:47:01;;;;;;;3.67;1.90;;;;;;;;;;5035555;28;19913;-53
2024/04/06 12:49:29;;;;;;;4.18;2.10;;;;;;;;;;5043325;28;20029;-51
2024/04/06 12:51:55;;;;;;;5.90;2.15;;;;;;;;;;5049883;28;20048;-51
2024/04/06 12:54:21;;;;;;;2.35;1.83;;;;;;;;;;5049439;28;20033;-53
2024/04/06 12:59:33;;;;;;;3.22;1.60;;;;;;;;;;5047335;28;20403;-59
2024/04/06 13:01:59;;;;;;;3.50;1.75;;;;;;;;;;5036489;28;20040;-49
2024/04/06 13:04:26;;;;;;;3.47;1.85;;;;;;;;;;5053353;28;20054;-52
2024/04/06 13:06:52;;;;;;;;;;;;;;;;;;5034805;28;20040;-52
2024/04/06 13:09:20;;;;;;;3.80;2.05;;;;;;;;;;5040758;28;20462;-51
2024/04/06 13:11:46;;;;;;;12.55;3.40;;;;;;;;;;5040149;28;20017;-54
2024/04/06 13:14:12;;;;;;;7.07;2.60;;;;;;;;;;5030086;28;20029;-52
2024/04/06 13:16:39;;;;;;;3.95;2.22;;;;;;;;;;5033870;28;20500;-53
2024/04/06 13:19:06;;;;;;;4.70;2.20;;;;;;;;;;5017122;28;20120;-53
2024/04/06 13:21:33;;;;;;;5.38;2.05;;;;;;;;;;5034164;28;20075;-54
2024/04/06 13:23:59;;;;;;;6.68;2.13;;;;;;;;;;5035633;28;20032;-55
2024/04/06 13:26:25;;;;;;;7.20;1.70;;;;;;;;;;5052286;28;20083;-53
2024/04/06 13:28:51;;;;;;;6.28;1.98;;;;;;;;;;5028049;28;20025;-47
2024/04/06 13:31:17;;;;;;;4.95;1.65;;;;;;;;;;5023743;28;20035;-47
2024/04/06 13:33:43;;;;;;;4.10;1.70;;;;;;;;;;5043526;28;20021;-47
2024/04/06 13:36:10;;;;;;;3.08;1.67;;;;;;;;;;5054861;28;20028;-47
2024/04/06 13:38:36;;;;;;;;;;;;;;;;;;5046407;28;20022;-47
2024/04/06 13:41:02;;;;;;;5.68;2.05;;;;;;;;;;5036939;28;19909;-48
2024/04/06 13:43:29;;;;;;;;;;;;;;;;;;5041699;28;20545;-48
2024/04/06 13:45:56;;;;;;;5.70;1.95;;;;;;;;;;5041631;28;20011;-49
2024/04/06 13:48:23;;;;;;;6.30;2.30;;;;;;;;;;5052621;28;20036;-49
2024/04/06 13:50:54;;;;;;;3.33;1.80;;;;;;;;;;5046837;28;20027;-48
2024/04/06 13:53:21;;;;;;;4.82;2.47;;;;;;;;;;5045725;28;20147;-47
2024/04/06 13:55:47;;;;;;;6.57;2.05;;;;;;;;;;5034086;28;20610;-50
2024/04/06 13:58:15;;;;;;;5.88;2.40;;;;;;;;;;5043576;28;20032;-55
2024/04/06 14:00:41;;;;;;;4.80;2.08;;;;;;;;;;5044996;28;20018;-53
2024/04/06 14:03:08;;;;;;;4.30;2.30;;;;;;;;;;5039133;28;20454;-55
2024/04/06 14:05:34;;;;;;;7.05;2.28;;;;;;;;;;5054374;28;20048;-55
2024/04/06 14:08:00;;;;;;;4.10;1.73;;;;;;;;;;5026459;28;20029;-54
2024/04/06 14:10:26;;;;;;;;;;;;;;;;;;5043334;28;20030;-55
2024/04/06 14:12:53;;;;;;;4.57;2.13;;;;;;;;;;5030573;28;19912;-52
2024/04/06 14:15:19;;;;;;;5.88;2.50;;;;;;;;;;5053006;28;20031;-57
2024/04/06 14:17:48;;;;;;;4.10;2.20;;;;;;;;;;5043216;28;20022;-55
2024/04/06 14:20:16;;;;;;;5.57;1.98;;;;;;;;;;5059294;28;20557;-56
2024/04/06 14:22:42;;;;;;;3.08;2.10;;;;;;;;;;5053519;28;20104;-53
2024/04/06 14:25:10;;;;;;;4.70;2.60;;;;;;;;;;5053830;28;20035;-55
2024/04/06 14:27:36;;;;;;;4.90;2.03;;;;;;;;;;5053261;28;20059;-54
2024/04/06 14:32:48;;;;;;;3.22;1.73;;;;;;;;;;5041392;28;20036;-54
2024/04/06 14:35:15;;;;;;;3.72;2.10;;;;;;;;;;5052158;28;20025;-54
2024/04/06 14:37:41;;;;;;;6.15;1.95;;;;;;;;;;5034463;28;20044;-56
2024/04/06 14:40:08;;;;;;;8.93;2.17;;;;;;;;;;5052646;28;20037;-56
2024/04/06 14:42:35;;;;;;;3.63;1.60;;;;;;;;;;5052866;28;20079;-56
2024/04/06 14:45:01;;;;;;;1.70;1.15;;;;;;;;;;5058400;28;20064;-55